sensor_id;sensor_type;location;lat;lon;timestamp;pressure;altitude;pressure_sealevel;temperature;humidity
27210;BME280;14721;42.668;23.386;2023-11-19T00:02:26;95281.50;;;3.93;80.71
27210;BME280;14721;42.668;23.386;2023-11-19T00:04:52;95237.63;;;3.72;80.93
27210;BME280;14721;42.668;23.386;2023-11-19T00:07:18;95283.09;;;4.14;80.41
27210;BME280;14721;42.668;23.386;2023-11-19T00:09:44;95268.97;;;3.97;80.25
27210;BME280;14721;42.668;23.386;2023-11-19T00:12:11;95291.63;;;4.02;80.34
27210;BME280;14721;42.668;23.386;2023-11-19T00:14:38;95271.31;;;4.03;80.19
27210;BME280;14721;42.668;23.386;2023-11-19T00:17:03;95249.72;;;3.95;80.10
27210;BME280;14721;42.668;23.386;2023-11-19T00:19:29;95304.38;;;4.11;79.58
27210;BME280;14721;42.668;23.386;2023-11-19T00:21:56;95294.94;;;4.06;80.23
27210;BME280;14721;42.668;23.386;2023-11-19T00:24:32;95296.53;;;4.10;79.72
27210;BME280;14721;42.668;23.386;2023-11-19T00:26:57;95295.75;;;4.08;79.69
27210;BME280;14721;42.668;23.386;2023-11-19T00:29:23;95300.41;;;4.03;79.89
27210;BME280;14721;42.668;23.386;2023-11-19T00:31:50;95308.81;;;4.11;79.72
27210;BME280;14721;42.668;23.386;2023-11-19T00:34:15;95307.78;;;4.13;79.35
27210;BME280;14721;42.668;23.386;2023-11-19T00:36:41;95249.94;;;3.90;79.11
27210;BME280;14721;42.668;23.386;2023-11-19T00:39:10;95287.19;;;4.03;79.62
27210;BME280;14721;42.668;23.386;2023-11-19T00:41:35;95293.88;;;4.10;79.82
27210;BME280;14721;42.668;23.386;2023-11-19T00:44:01;95308.88;;;4.09;79.90
27210;BME280;14721;42.668;23.386;2023-11-19T00:46:29;95310.59;;;4.10;80.19
27210;BME280;14721;42.668;23.386;2023-11-19T00:48:57;95301.19;;;4.05;80.06
27210;BME280;14721;42.668;23.386;2023-11-19T00:51:24;95287.03;;;4.06;79.51
27210;BME280;14721;42.668;23.386;2023-11-19T00:53:51;95307.72;;;4.15;79.29
27210;BME280;14721;42.668;23.386;2023-11-19T00:56:18;95322.19;;;4.08;80.03
27210;BME280;14721;42.668;23.386;2023-11-19T00:58:44;95294.44;;;3.99;80.08
27210;BME280;14721;42.668;23.386;2023-11-19T01:01:11;95314.03;;;4.12;79.80
27210;BME280;14721;42.668;23.386;2023-11-19T01:03:37;95298.81;;;4.17;79.41
27210;BME280;14721;42.668;23.386;2023-11-19T01:06:03;95302.19;;;4.02;79.40
27210;BME280;14721;42.668;23.386;2023-11-19T01:08:28;95286.06;;;3.89;80.11
27210;BME280;14721;42.668;23.386;2023-11-19T01:10:54;95302.00;;;3.88;80.59
27210;BME280;14721;42.668;23.386;2023-11-19T01:13:20;95297.50;;;3.90;80.56
27210;BME280;14721;42.668;23.386;2023-11-19T01:15:45;95308.69;;;3.95;80.53
27210;BME280;14721;42.668;23.386;2023-11-19T01:18:12;95303.56;;;3.92;80.58
27210;BME280;14721;42.668;23.386;2023-11-19T01:20:38;95314.47;;;4.03;80.72
27210;BME280;14721;42.668;23.386;2023-11-19T01:23:03;95316.41;;;4.00;80.50
27210;BME280;14721;42.668;23.386;2023-11-19T01:25:29;95303.13;;;4.01;80.44
27210;BME280;14721;42.668;23.386;2023-11-19T01:27:54;95317.69;;;4.10;80.16
27210;BME280;14721;42.668;23.386;2023-11-19T01:30:24;95318.69;;;4.07;80.14
27210;BME280;14721;42.668;23.386;2023-11-19T01:32:50;95313.53;;;4.04;79.96
27210;BME280;14721;42.668;23.386;2023-11-19T01:35:15;95330.56;;;3.99;80.56
27210;BME280;14721;42.668;23.386;2023-11-19T01:37:41;95309.22;;;3.84;80.17
27210;BME280;14721;42.668;23.386;2023-11-19T01:40:06;95317.34;;;3.99;80.50
27210;BME280;14721;42.668;23.386;2023-11-19T01:42:37;95322.00;;;3.93;80.26
27210;BME280;14721;42.668;23.386;2023-11-19T01:45:07;95302.16;;;3.85;80.40
27210;BME280;14721;42.668;23.386;2023-11-19T01:47:34;95311.66;;;3.89;80.00
27210;BME280;14721;42.668;23.386;2023-11-19T01:50:01;95292.75;;;3.79;79.57
27210;BME280;14721;42.668;23.386;2023-11-19T01:52:29;95332.63;;;3.92;79.63
27210;BME280;14721;42.668;23.386;2023-11-19T01:54:55;95328.16;;;3.94;79.48
27210;BME280;14721;42.668;23.386;2023-11-19T01:57:22;95298.34;;;3.73;79.61
27210;BME280;14721;42.668;23.386;2023-11-19T01:59:50;95333.72;;;3.88;79.28
27210;BME280;14721;42.668;23.386;2023-11-19T02:02:16;95301.75;;;3.75;79.07
27210;BME280;14721;42.668;23.386;2023-11-19T02:04:47;95321.47;;;3.68;79.28
27210;BME280;14721;42.668;23.386;2023-11-19T02:07:13;95331.75;;;3.74;79.40
27210;BME280;14721;42.668;23.386;2023-11-19T02:09:42;95330.41;;;3.66;79.27
27210;BME280;14721;42.668;23.386;2023-11-19T02:12:08;95303.91;;;3.49;79.35
27210;BME280;14721;42.668;23.386;2023-11-19T02:14:34;95301.22;;;3.50;78.82
27210;BME280;14721;42.668;23.386;2023-11-19T02:17:00;95307.28;;;3.52;79.34
27210;BME280;14721;42.668;23.386;2023-11-19T02:19:25;95323.75;;;3.57;79.13
27210;BME280;14721;42.668;23.386;2023-11-19T02:21:51;95314.13;;;3.56;79.02
27210;BME280;14721;42.668;23.386;2023-11-19T02:24:17;95322.47;;;3.66;78.91
27210;BME280;14721;42.668;23.386;2023-11-19T02:27:21;95311.84;;;3.67;78.88
27210;BME280;14721;42.668;23.386;2023-11-19T02:29:55;95332.75;;;3.72;78.67
27210;BME280;14721;42.668;23.386;2023-11-19T02:32:27;95310.47;;;3.59;78.24
27210;BME280;14721;42.668;23.386;2023-11-19T02:34:53;95341.44;;;3.74;78.57
27210;BME280;14721;42.668;23.386;2023-11-19T02:37:23;95328.16;;;3.75;78.42
27210;BME280;14721;42.668;23.386;2023-11-19T02:39:48;95307.81;;;3.59;78.43
27210;BME280;14721;42.668;23.386;2023-11-19T02:42:14;95302.06;;;3.51;78.53
27210;BME280;14721;42.668;23.386;2023-11-19T02:44:43;95310.75;;;3.71;78.11
27210;BME280;14721;42.668;23.386;2023-11-19T02:47:16;95306.25;;;3.73;78.03
27210;BME280;14721;42.668;23.386;2023-11-19T02:49:46;95308.19;;;3.70;77.60
27210;BME280;14721;42.668;23.386;2023-11-19T02:52:11;95323.75;;;3.57;78.41
27210;BME280;14721;42.668;23.386;2023-11-19T02:54:37;95307.13;;;3.55;78.39
27210;BME280;14721;42.668;23.386;2023-11-19T02:57:03;95326.53;;;3.73;78.63
27210;BME280;14721;42.668;23.386;2023-11-19T02:59:30;95318.47;;;3.76;78.38
27210;BME280;14721;42.668;23.386;2023-11-19T03:02:05;95320.16;;;3.77;78.55
27210;BME280;14721;42.668;23.386;2023-11-19T03:04:37;95324.84;;;3.72;78.62
27210;BME280;14721;42.668;23.386;2023-11-19T03:07:06;95322.72;;;3.78;78.33
27210;BME280;14721;42.668;23.386;2023-11-19T03:09:34;95306.94;;;3.77;78.07
27210;BME280;14721;42.668;23.386;2023-11-19T03:12:01;95313.47;;;3.70;78.28
27210;BME280;14721;42.668;23.386;2023-11-19T03:14:26;95331.69;;;3.57;78.80
27210;BME280;14721;42.668;23.386;2023-11-19T03:16:53;95330.91;;;3.55;78.66
27210;BME280;14721;42.668;23.386;2023-11-19T03:19:18;95297.38;;;3.39;78.63
27210;BME280;14721;42.668;23.386;2023-11-19T03:21:44;95311.34;;;3.41;78.89
27210;BME280;14721;42.668;23.386;2023-11-19T03:24:10;95305.91;;;3.44;78.95
27210;BME280;14721;42.668;23.386;2023-11-19T03:26:40;95313.91;;;3.42;79.05
27210;BME280;14721;42.668;23.386;2023-11-19T03:29:08;95325.41;;;3.41;79.30
27210;BME280;14721;42.668;23.386;2023-11-19T03:31:33;95335.34;;;3.55;78.87
27210;BME280;14721;42.668;23.386;2023-11-19T03:34:00;95301.84;;;3.37;79.23
27210;BME280;14721;42.668;23.386;2023-11-19T03:36:36;95319.19;;;3.42;79.17
27210;BME280;14721;42.668;23.386;2023-11-19T03:39:02;95334.91;;;3.45;79.56
27210;BME280;14721;42.668;23.386;2023-11-19T03:41:28;95350.75;;;3.45;79.77
27210;BME280;14721;42.668;23.386;2023-11-19T03:43:53;95342.41;;;3.36;79.81
27210;BME280;14721;42.668;23.386;2023-11-19T03:46:20;95342.13;;;3.42;80.13
27210;BME280;14721;42.668;23.386;2023-11-19T03:48:54;95351.69;;;3.63;79.68
27210;BME280;14721;42.668;23.386;2023-11-19T03:51:22;95365.03;;;3.60;79.86
27210;BME280;14721;42.668;23.386;2023-11-19T03:53:48;95350.38;;;3.53;79.16
27210;BME280;14721;42.668;23.386;2023-11-19T03:56:13;95341.28;;;3.60;79.16
27210;BME280;14721;42.668;23.386;2023-11-19T03:58:39;95362.50;;;3.75;78.53
27210;BME280;14721;42.668;23.386;2023-11-19T04:01:05;95367.41;;;3.66;78.70
27210;BME280;14721;42.668;23.386;2023-11-19T04:03:32;95332.59;;;3.38;79.13
27210;BME280;14721;42.668;23.386;2023-11-19T04:06:02;95355.59;;;3.54;79.27
27210;BME280;14721;42.668;23.386;2023-11-19T04:08:38;95357.75;;;3.46;79.18
27210;BME280;14721;42.668;23.386;2023-11-19T04:11:04;95332.06;;;3.31;79.40
27210;BME280;14721;42.668;23.386;2023-11-19T04:13:30;95343.44;;;3.32;79.80
27210;BME280;14721;42.668;23.386;2023-11-19T04:15:59;95364.44;;;3.35;79.87
27210;BME280;14721;42.668;23.386;2023-11-19T04:18:29;95379.31;;;3.37;79.86
27210;BME280;14721;42.668;23.386;2023-11-19T04:20:56;95366.38;;;3.31;80.30
27210;BME280;14721;42.668;23.386;2023-11-19T04:23:27;95340.59;;;3.18;79.99
27210;BME280;14721;42.668;23.386;2023-11-19T04:25:53;95331.75;;;3.19;79.90
27210;BME280;14721;42.668;23.386;2023-11-19T04:28:19;95369.22;;;3.45;79.61
27210;BME280;14721;42.668;23.386;2023-11-19T04:30:44;95373.41;;;3.51;79.42
27210;BME280;14721;42.668;23.386;2023-11-19T04:33:10;95384.78;;;3.51;79.57
27210;BME280;14721;42.668;23.386;2023-11-19T04:35:36;95380.59;;;3.47;79.55
27210;BME280;14721;42.668;23.386;2023-11-19T04:38:01;95366.72;;;3.42;79.35
27210;BME280;14721;42.668;23.386;2023-11-19T04:40:27;95388.00;;;3.39;79.17
27210;BME280;14721;42.668;23.386;2023-11-19T04:42:52;95359.50;;;3.27;79.25
27210;BME280;14721;42.668;23.386;2023-11-19T04:45:18;95386.44;;;3.35;79.22
27210;BME280;14721;42.668;23.386;2023-11-19T04:47:43;95383.19;;;3.29;79.30
27210;BME280;14721;42.668;23.386;2023-11-19T04:50:10;95382.16;;;3.33;79.23
27210;BME280;14721;42.668;23.386;2023-11-19T04:52:38;95375.13;;;3.32;79.50
27210;BME280;14721;42.668;23.386;2023-11-19T04:55:13;95316.16;;;2.94;79.38
27210;BME280;14721;42.668;23.386;2023-11-19T04:57:40;95370.13;;;3.26;79.37
27210;BME280;14721;42.668;23.386;2023-11-19T05:00:07;95336.59;;;3.09;79.50
27210;BME280;14721;42.668;23.386;2023-11-19T05:02:35;95284.56;;;2.74;79.59
27210;BME280;14721;42.668;23.386;2023-11-19T05:05:02;95375.50;;;3.24;79.71
27210;BME280;14721;42.668;23.386;2023-11-19T05:07:31;95397.69;;;3.20;79.97
27210;BME280;14721;42.668;23.386;2023-11-19T05:09:56;95382.66;;;3.02;80.00
27210;BME280;14721;42.668;23.386;2023-11-19T05:12:22;95405.88;;;3.14;79.95
27210;BME280;14721;42.668;23.386;2023-11-19T05:14:48;95416.16;;;3.20;79.45
27210;BME280;14721;42.668;23.386;2023-11-19T05:17:18;95409.41;;;3.33;79.83
27210;BME280;14721;42.668;23.386;2023-11-19T05:19:44;95409.94;;;3.41;79.11
27210;BME280;14721;42.668;23.386;2023-11-19T05:22:11;95374.72;;;3.22;79.17
27210;BME280;14721;42.668;23.386;2023-11-19T05:24:38;95419.19;;;3.50;78.31
27210;BME280;14721;42.668;23.386;2023-11-19T05:27:05;95417.34;;;3.52;78.17
27210;BME280;14721;42.668;23.386;2023-11-19T05:29:32;95366.88;;;3.21;77.90
27210;BME280;14721;42.668;23.386;2023-11-19T05:31:57;95395.28;;;3.34;78.32
27210;BME280;14721;42.668;23.386;2023-11-19T05:34:23;95380.69;;;3.26;78.09
27210;BME280;14721;42.668;23.386;2023-11-19T05:36:49;95407.63;;;3.34;78.32
27210;BME280;14721;42.668;23.386;2023-11-19T05:39:16;95420.34;;;3.44;78.71
27210;BME280;14721;42.668;23.386;2023-11-19T05:41:42;95415.41;;;3.37;78.37
27210;BME280;14721;42.668;23.386;2023-11-19T05:44:09;95417.78;;;3.43;78.05
27210;BME280;14721;42.668;23.386;2023-11-19T05:46:35;95409.19;;;3.38;77.91
27210;BME280;14721;42.668;23.386;2023-11-19T05:49:05;95416.00;;;3.43;77.90
27210;BME280;14721;42.668;23.386;2023-11-19T05:51:31;95398.28;;;3.27;77.76
27210;BME280;14721;42.668;23.386;2023-11-19T05:53:56;95399.78;;;3.32;78.03
27210;BME280;14721;42.668;23.386;2023-11-19T05:56:22;95398.34;;;3.25;78.66
27210;BME280;14721;42.668;23.386;2023-11-19T05:58:50;95402.09;;;3.20;78.53
27210;BME280;14721;42.668;23.386;2023-11-19T06:01:16;95406.53;;;3.19;78.73
27210;BME280;14721;42.668;23.386;2023-11-19T06:03:42;95385.09;;;3.07;78.79
27210;BME280;14721;42.668;23.386;2023-11-19T06:06:08;95413.38;;;3.23;78.38
27210;BME280;14721;42.668;23.386;2023-11-19T06:08:34;95356.28;;;3.02;78.16
27210;BME280;14721;42.668;23.386;2023-11-19T06:11:00;95448.25;;;3.31;78.66
27210;BME280;14721;42.668;23.386;2023-11-19T06:13:26;95421.72;;;3.14;78.96
27210;BME280;14721;42.668;23.386;2023-11-19T06:15:54;95436.00;;;3.29;78.66
27210;BME280;14721;42.668;23.386;2023-11-19T06:18:19;95429.91;;;3.28;78.89
27210;BME280;14721;42.668;23.386;2023-11-19T06:20:45;95432.25;;;3.34;78.76
27210;BME280;14721;42.668;23.386;2023-11-19T06:23:10;95422.13;;;3.25;78.87
27210;BME280;14721;42.668;23.386;2023-11-19T06:25:36;95418.41;;;3.29;78.87
27210;BME280;14721;42.668;23.386;2023-11-19T06:28:02;95417.84;;;3.41;78.71
27210;BME280;14721;42.668;23.386;2023-11-19T06:30:27;95442.16;;;3.49;78.11
27210;BME280;14721;42.668;23.386;2023-11-19T06:32:57;95412.84;;;3.35;77.72
27210;BME280;14721;42.668;23.386;2023-11-19T06:35:22;95425.34;;;3.50;77.78
27210;BME280;14721;42.668;23.386;2023-11-19T06:37:48;95404.56;;;3.43;78.02
27210;BME280;14721;42.668;23.386;2023-11-19T06:40:13;95425.22;;;3.53;77.68
27210;BME280;14721;42.668;23.386;2023-11-19T06:42:41;95428.38;;;3.61;77.37
27210;BME280;14721;42.668;23.386;2023-11-19T06:45:07;95428.88;;;3.51;77.41
27210;BME280;14721;42.668;23.386;2023-11-19T06:47:37;95426.50;;;3.45;77.88
27210;BME280;14721;42.668;23.386;2023-11-19T06:50:03;95439.56;;;3.66;76.99
27210;BME280;14721;42.668;23.386;2023-11-19T06:52:31;95458.28;;;3.62;76.99
27210;BME280;14721;42.668;23.386;2023-11-19T06:54:56;95422.22;;;3.61;76.88
27210;BME280;14721;42.668;23.386;2023-11-19T06:57:22;95396.44;;;3.47;76.72
27210;BME280;14721;42.668;23.386;2023-11-19T06:59:49;95420.59;;;3.58;76.30
27210;BME280;14721;42.668;23.386;2023-11-19T07:02:15;95393.97;;;3.24;76.50
27210;BME280;14721;42.668;23.386;2023-11-19T07:04:41;95442.41;;;3.43;76.57
27210;BME280;14721;42.668;23.386;2023-11-19T07:07:08;95433.72;;;3.21;76.62
27210;BME280;14721;42.668;23.386;2023-11-19T07:09:34;95466.19;;;3.43;77.12
27210;BME280;14721;42.668;23.386;2023-11-19T07:12:00;95463.34;;;3.48;76.28
27210;BME280;14721;42.668;23.386;2023-11-19T07:14:27;95446.09;;;3.39;76.48
27210;BME280;14721;42.668;23.386;2023-11-19T07:16:53;95465.56;;;3.57;76.61
27210;BME280;14721;42.668;23.386;2023-11-19T07:19:21;95472.38;;;3.81;76.14
27210;BME280;14721;42.668;23.386;2023-11-19T07:21:46;95462.66;;;3.81;75.08
27210;BME280;14721;42.668;23.386;2023-11-19T07:24:12;95484.31;;;3.89;74.48
27210;BME280;14721;42.668;23.386;2023-11-19T07:26:43;95436.19;;;3.44;74.55
27210;BME280;14721;42.668;23.386;2023-11-19T07:29:09;95413.66;;;3.37;74.41
27210;BME280;14721;42.668;23.386;2023-11-19T07:31:35;95494.22;;;3.84;74.26
27210;BME280;14721;42.668;23.386;2023-11-19T07:34:00;95490.47;;;3.90;74.49
27210;BME280;14721;42.668;23.386;2023-11-19T07:36:26;95522.84;;;4.14;74.07
27210;BME280;14721;42.668;23.386;2023-11-19T07:38:51;95515.41;;;4.22;73.08
27210;BME280;14721;42.668;23.386;2023-11-19T07:41:17;95498.97;;;4.15;72.36
27210;BME280;14721;42.668;23.386;2023-11-19T07:43:45;95468.88;;;4.18;72.11
27210;BME280;14721;42.668;23.386;2023-11-19T07:46:15;95498.31;;;4.29;71.68
27210;BME280;14721;42.668;23.386;2023-11-19T07:48:41;95520.59;;;4.42;72.01
27210;BME280;14721;42.668;23.386;2023-11-19T07:51:07;95482.16;;;4.35;71.60
27210;BME280;14721;42.668;23.386;2023-11-19T07:53:33;95498.41;;;4.27;71.17
27210;BME280;14721;42.668;23.386;2023-11-19T07:55:59;95504.34;;;4.14;71.34
27210;BME280;14721;42.668;23.386;2023-11-19T07:58:25;95469.81;;;3.79;71.52
27210;BME280;14721;42.668;23.386;2023-11-19T08:00:51;95503.81;;;4.06;71.83
27210;BME280;14721;42.668;23.386;2023-11-19T08:03:17;95500.03;;;3.92;72.20
27210;BME280;14721;42.668;23.386;2023-11-19T08:05:45;95520.63;;;4.05;71.63
27210;BME280;14721;42.668;23.386;2023-11-19T08:08:11;95491.72;;;3.81;72.29
27210;BME280;14721;42.668;23.386;2023-11-19T08:10:37;95514.66;;;3.81;72.79
27210;BME280;14721;42.668;23.386;2023-11-19T08:13:02;95495.94;;;3.67;72.80
27210;BME280;14721;42.668;23.386;2023-11-19T08:15:28;95520.59;;;3.86;72.73
27210;BME280;14721;42.668;23.386;2023-11-19T08:17:56;95515.75;;;3.96;73.80
27210;BME280;14721;42.668;23.386;2023-11-19T08:20:25;95540.28;;;4.36;72.98
27210;BME280;14721;42.668;23.386;2023-11-19T08:22:50;95530.28;;;4.43;71.43
27210;BME280;14721;42.668;23.386;2023-11-19T08:25:16;95506.69;;;4.20;71.47
27210;BME280;14721;42.668;23.386;2023-11-19T08:27:42;95511.84;;;4.41;71.87
27210;BME280;14721;42.668;23.386;2023-11-19T08:30:08;95543.09;;;4.69;70.29
27210;BME280;14721;42.668;23.386;2023-11-19T08:32:34;95544.50;;;4.59;69.98
27210;BME280;14721;42.668;23.386;2023-11-19T08:35:00;95545.00;;;4.48;70.20
27210;BME280;14721;42.668;23.386;2023-11-19T08:37:25;95519.84;;;4.40;70.02
27210;BME280;14721;42.668;23.386;2023-11-19T08:39:51;95563.72;;;4.44;70.54
27210;BME280;14721;42.668;23.386;2023-11-19T08:42:17;95558.09;;;4.51;70.20
27210;BME280;14721;42.668;23.386;2023-11-19T08:44:49;95524.84;;;4.46;69.39
27210;BME280;14721;42.668;23.386;2023-11-19T08:47:33;95536.84;;;4.71;69.45
27210;BME280;14721;42.668;23.386;2023-11-19T08:50:22;95527.94;;;4.91;68.66
27210;BME280;14721;42.668;23.386;2023-11-19T08:52:47;95534.50;;;4.82;67.75
27210;BME280;14721;42.668;23.386;2023-11-19T08:55:16;95560.44;;;4.76;67.85
27210;BME280;14721;42.668;23.386;2023-11-19T08:57:46;95542.56;;;4.62;69.06
27210;BME280;14721;42.668;23.386;2023-11-19T09:00:23;95525.38;;;4.71;68.22
27210;BME280;14721;42.668;23.386;2023-11-19T09:02:50;95540.41;;;5.23;67.30
27210;BME280;14721;42.668;23.386;2023-11-19T09:05:19;95537.75;;;5.23;66.03
27210;BME280;14721;42.668;23.386;2023-11-19T09:07:45;95524.59;;;5.21;65.63
27210;BME280;14721;42.668;23.386;2023-11-19T09:10:12;95518.72;;;5.15;65.56
27210;BME280;14721;42.668;23.386;2023-11-19T09:12:37;95529.00;;;5.21;65.99
27210;BME280;14721;42.668;23.386;2023-11-19T09:15:04;95495.94;;;4.95;65.63
27210;BME280;14721;42.668;23.386;2023-11-19T09:17:30;95523.09;;;4.99;66.41
27210;BME280;14721;42.668;23.386;2023-11-19T09:19:55;95514.03;;;4.86;66.46
27210;BME280;14721;42.668;23.386;2023-11-19T09:22:21;95528.69;;;4.93;67.15
27210;BME280;14721;42.668;23.386;2023-11-19T09:24:46;95546.47;;;5.08;66.54
27210;BME280;14721;42.668;23.386;2023-11-19T09:27:13;95533.28;;;5.06;66.33
27210;BME280;14721;42.668;23.386;2023-11-19T09:29:38;95538.38;;;5.11;66.70
27210;BME280;14721;42.668;23.386;2023-11-19T09:32:09;95554.44;;;5.25;65.87
27210;BME280;14721;42.668;23.386;2023-11-19T09:34:35;95541.81;;;5.30;65.24
27210;BME280;14721;42.668;23.386;2023-11-19T09:37:01;95538.59;;;5.40;65.47
27210;BME280;14721;42.668;23.386;2023-11-19T09:39:28;95502.53;;;5.38;64.97
27210;BME280;14721;42.668;23.386;2023-11-19T09:41:53;95491.84;;;5.22;65.46
27210;BME280;14721;42.668;23.386;2023-11-19T09:44:19;95483.59;;;5.28;65.79
27210;BME280;14721;42.668;23.386;2023-11-19T09:46:45;95482.66;;;5.46;65.09
27210;BME280;14721;42.668;23.386;2023-11-19T09:49:13;95495.31;;;5.41;64.67
27210;BME280;14721;42.668;23.386;2023-11-19T09:51:39;95471.53;;;4.89;65.85
27210;BME280;14721;42.668;23.386;2023-11-19T09:54:04;95477.16;;;5.00;66.15
27210;BME280;14721;42.668;23.386;2023-11-19T09:56:30;95453.78;;;4.91;66.02
27210;BME280;14721;42.668;23.386;2023-11-19T09:58:56;95480.16;;;4.75;66.65
27210;BME280;14721;42.668;23.386;2023-11-19T10:01:22;95466.50;;;4.49;66.25
27210;BME280;14721;42.668;23.386;2023-11-19T10:03:50;95479.44;;;4.55;67.50
27210;BME280;14721;42.668;23.386;2023-11-19T10:06:17;95437.28;;;4.15;67.45
27210;BME280;14721;42.668;23.386;2023-11-19T10:08:44;95467.66;;;4.25;68.00
27210;BME280;14721;42.668;23.386;2023-11-19T10:11:10;95471.94;;;4.46;68.17
27210;BME280;14721;42.668;23.386;2023-11-19T10:13:38;95458.66;;;4.64;67.68
27210;BME280;14721;42.668;23.386;2023-11-19T10:16:07;95475.81;;;4.91;67.03
27210;BME280;14721;42.668;23.386;2023-11-19T10:18:34;95438.59;;;4.94;66.57
27210;BME280;14721;42.668;23.386;2023-11-19T10:21:06;95480.03;;;4.95;66.48
27210;BME280;14721;42.668;23.386;2023-11-19T10:23:56;95435.00;;;4.78;66.59
27210;BME280;14721;42.668;23.386;2023-11-19T10:26:23;95462.50;;;5.10;65.53
27210;BME280;14721;42.668;23.386;2023-11-19T10:28:49;95455.56;;;5.24;64.99
27210;BME280;14721;42.668;23.386;2023-11-19T10:31:16;95465.75;;;5.32;64.57
27210;BME280;14721;42.668;23.386;2023-11-19T10:33:42;95464.97;;;5.47;64.62
27210;BME280;14721;42.668;23.386;2023-11-19T10:36:12;95462.63;;;5.41;65.23
27210;BME280;14721;42.668;23.386;2023-11-19T10:38:39;95434.91;;;5.31;65.20
27210;BME280;14721;42.668;23.386;2023-11-19T10:41:05;95464.47;;;5.56;65.35
27210;BME280;14721;42.668;23.386;2023-11-19T10:43:31;95465.44;;;5.55;64.40
27210;BME280;14721;42.668;23.386;2023-11-19T10:46:14;95469.16;;;5.51;64.43
27210;BME280;14721;42.668;23.386;2023-11-19T10:48:41;95470.44;;;5.44;64.71
27210;BME280;14721;42.668;23.386;2023-11-19T10:51:08;95441.47;;;5.07;65.28
27210;BME280;14721;42.668;23.386;2023-11-19T10:53:36;95426.69;;;4.86;65.62
27210;BME280;14721;42.668;23.386;2023-11-19T10:56:05;95455.50;;;5.09;66.00
27210;BME280;14721;42.668;23.386;2023-11-19T10:58:32;95446.44;;;4.96;66.02
27210;BME280;14721;42.668;23.386;2023-11-19T11:01:02;95460.56;;;4.96;66.51
27210;BME280;14721;42.668;23.386;2023-11-19T11:03:35;95441.22;;;4.94;65.81
27210;BME280;14721;42.668;23.386;2023-11-19T11:06:05;95441.03;;;4.82;66.00
27210;BME280;14721;42.668;23.386;2023-11-19T11:08:31;95426.84;;;4.83;65.70
27210;BME280;14721;42.668;23.386;2023-11-19T11:10:57;95377.91;;;4.39;66.27
27210;BME280;14721;42.668;23.386;2023-11-19T11:13:26;95431.91;;;4.87;66.61
27210;BME280;14721;42.668;23.386;2023-11-19T11:15:57;95416.50;;;4.95;66.58
27210;BME280;14721;42.668;23.386;2023-11-19T11:18:23;95434.31;;;5.09;65.96
27210;BME280;14721;42.668;23.386;2023-11-19T11:20:58;95434.47;;;5.06;65.70
27210;BME280;14721;42.668;23.386;2023-11-19T11:32:16;95442.13;;;5.77;64.26
27210;BME280;14721;42.668;23.386;2023-11-19T11:34:55;95420.97;;;5.60;63.57
27210;BME280;14721;42.668;23.386;2023-11-19T11:39:53;95431.56;;;5.60;63.06
27210;BME280;14721;42.668;23.386;2023-11-19T11:50:20;95401.00;;;5.70;62.79
27210;BME280;14721;42.668;23.386;2023-11-19T11:55:36;95380.78;;;5.52;62.41
27210;BME280;14721;42.668;23.386;2023-11-19T11:58:03;95384.19;;;5.38;63.55
27210;BME280;14721;42.668;23.386;2023-11-19T12:00:37;95410.28;;;5.61;63.65
27210;BME280;14721;42.668;23.386;2023-11-19T12:03:05;95405.06;;;5.60;64.02
27210;BME280;14721;42.668;23.386;2023-11-19T12:05:32;95409.63;;;5.58;64.10
27210;BME280;14721;42.668;23.386;2023-11-19T12:08:06;95416.91;;;5.70;64.57
27210;BME280;14721;42.668;23.386;2023-11-19T12:10:56;95418.34;;;5.75;63.99
27210;BME280;14721;42.668;23.386;2023-11-19T12:13:28;95398.00;;;5.76;64.16
27210;BME280;14721;42.668;23.386;2023-11-19T12:18:20;95367.78;;;5.63;63.46
27210;BME280;14721;42.668;23.386;2023-11-19T12:20:48;95397.22;;;5.74;63.13
27210;BME280;14721;42.668;23.386;2023-11-19T12:23:14;95390.06;;;5.76;63.71
27210;BME280;14721;42.668;23.386;2023-11-19T12:25:40;95317.50;;;5.30;63.07
27210;BME280;14721;42.668;23.386;2023-11-19T12:28:11;95381.28;;;5.58;63.57
27210;BME280;14721;42.668;23.386;2023-11-19T12:30:39;95372.69;;;5.55;63.55
27210;BME280;14721;42.668;23.386;2023-11-19T12:33:09;95364.72;;;5.55;64.44
27210;BME280;14721;42.668;23.386;2023-11-19T12:35:41;95341.53;;;5.43;64.36
27210;BME280;14721;42.668;23.386;2023-11-19T12:38:07;95382.69;;;5.81;63.58
27210;BME280;14721;42.668;23.386;2023-11-19T12:40:33;95347.19;;;5.68;63.29
27210;BME280;14721;42.668;23.386;2023-11-19T12:42:59;95354.44;;;5.82;64.27
27210;BME280;14721;42.668;23.386;2023-11-19T12:45:34;95368.63;;;5.96;63.27
27210;BME280;14721;42.668;23.386;2023-11-19T12:48:08;95316.25;;;5.68;62.92
27210;BME280;14721;42.668;23.386;2023-11-19T12:50:59;95359.66;;;5.83;63.38
27210;BME280;14721;42.668;23.386;2023-11-19T12:53:27;95307.00;;;5.44;63.17
27210;BME280;14721;42.668;23.386;2023-11-19T12:55:54;95356.69;;;5.72;63.54
27210;BME280;14721;42.668;23.386;2023-11-19T12:58:34;95365.25;;;5.77;63.47
27210;BME280;14721;42.668;23.386;2023-11-19T13:01:04;95343.44;;;5.72;63.39
27210;BME280;14721;42.668;23.386;2023-11-19T13:03:32;95352.69;;;5.80;62.97
27210;BME280;14721;42.668;23.386;2023-11-19T13:06:03;95331.91;;;5.73;64.01
27210;BME280;14721;42.668;23.386;2023-11-19T13:08:36;95311.72;;;5.70;63.72
27210;BME280;14721;42.668;23.386;2023-11-19T13:14:22;95267.50;;;5.55;63.43
27210;BME280;14721;42.668;23.386;2023-11-19T13:23:53;95294.00;;;5.71;63.44
27210;BME280;14721;42.668;23.386;2023-11-19T13:30:06;95321.31;;;6.04;64.34
27210;BME280;14721;42.668;23.386;2023-11-19T13:33:01;95315.41;;;6.15;63.15
27210;BME280;14721;42.668;23.386;2023-11-19T13:35:52;95331.16;;;6.18;62.82
27210;BME280;14721;42.668;23.386;2023-11-19T13:38:43;95305.84;;;5.97;63.43
27210;BME280;14721;42.668;23.386;2023-11-19T13:41:55;95222.88;;;5.63;63.49
27210;BME280;14721;42.668;23.386;2023-11-19T13:53:52;95313.44;;;6.18;63.42